createdAt,value
2022-08-12T00:00:44.488Z,0.00
2022-08-12T00:02:02.883Z,0.00
2022-08-12T00:02:44.482Z,0.00
2022-08-12T00:03:44.384Z,0.00
2022-08-12T00:04:44.324Z,0.00
2022-08-12T00:05:57.120Z,0.00
2022-08-12T00:07:45.414Z,0.00
2022-08-12T00:08:44.153Z,0.00
2022-08-12T00:09:44.117Z,0.00
2022-08-12T00:10:44.070Z,0.00
2022-08-12T00:11:44.029Z,0.00
2022-08-12T00:14:08.424Z,0.00
2022-08-12T00:15:08.377Z,0.00
2022-08-12T00:16:08.336Z,0.00
2022-08-12T00:17:08.296Z,0.00
2022-08-12T00:22:18.318Z,0.00
2022-08-12T00:23:18.065Z,0.00
2022-08-12T00:24:18.029Z,0.00
2022-08-12T00:25:18.291Z,0.00
2022-08-12T00:26:22.714Z,0.00
2022-08-12T00:27:18.208Z,0.00
2022-08-12T00:50:43.262Z,0.00
2022-08-12T00:51:43.213Z,0.00
2022-08-12T00:52:43.187Z,0.00
2022-08-12T00:53:43.130Z,0.00
2022-08-12T00:54:43.083Z,0.00
2022-08-12T00:55:43.049Z,0.00
2022-08-12T00:56:42.998Z,0.00
2022-08-12T00:57:42.954Z,0.00
2022-08-12T00:58:42.915Z,0.00
2022-08-12T01:00:42.826Z,0.00
2022-08-12T01:02:10.452Z,0.00
2022-08-12T01:02:42.861Z,0.00
2022-08-12T01:03:42.708Z,0.00
2022-08-12T01:04:42.659Z,0.00
2022-08-12T01:05:42.621Z,0.00
2022-08-12T01:06:42.583Z,0.00
2022-08-12T01:07:42.633Z,0.00
2022-08-12T01:08:42.498Z,0.00
2022-08-12T01:09:42.463Z,0.00
2022-08-12T01:10:42.413Z,0.00
2022-08-12T01:11:42.374Z,0.00
2022-08-12T01:12:42.330Z,0.00
2022-08-12T01:13:42.288Z,0.00
2022-08-12T01:14:42.261Z,0.00
2022-08-12T01:15:42.199Z,0.00
2022-08-12T01:16:42.163Z,0.00
2022-08-12T01:17:42.124Z,0.00
2022-08-12T01:18:42.080Z,0.00
2022-08-12T01:19:42.040Z,0.00
2022-08-12T01:20:41.992Z,0.00
2022-08-12T01:21:41.959Z,0.00
2022-08-12T01:22:41.979Z,0.00
2022-08-12T01:23:41.869Z,0.00
2022-08-12T01:24:41.826Z,0.00
2022-08-12T01:25:41.807Z,0.00
2022-08-12T01:26:41.748Z,0.00
2022-08-12T01:27:41.701Z,0.00
2022-08-12T01:28:41.684Z,0.00
2022-08-12T01:29:41.620Z,0.00
2022-08-12T01:30:41.579Z,0.00
2022-08-12T01:31:41.535Z,0.00
2022-08-12T01:32:41.696Z,0.00
2022-08-12T01:33:41.457Z,0.00
2022-08-12T01:34:41.737Z,0.00
2022-08-12T01:35:41.368Z,0.00
2022-08-12T01:36:41.331Z,0.00
2022-08-12T01:37:41.287Z,0.00
2022-08-12T01:38:41.259Z,0.00
2022-08-12T01:40:34.880Z,0.00
2022-08-12T01:40:45.010Z,0.00
2022-08-12T01:41:41.135Z,0.00
2022-08-12T01:42:41.221Z,0.00
2022-08-12T01:43:41.030Z,0.00
2022-08-12T02:18:05.532Z,0.00
2022-08-12T02:19:13.676Z,0.00
2022-08-12T02:20:05.457Z,0.00
2022-08-12T02:21:05.391Z,0.00
2022-08-12T02:22:05.350Z,0.00
2022-08-12T02:23:05.327Z,0.00
2022-08-12T02:24:05.267Z,0.00
2022-08-12T02:25:05.218Z,0.00
2022-08-12T02:26:05.175Z,0.00
2022-08-12T02:27:05.137Z,0.00
2022-08-12T02:28:06.145Z,0.00
2022-08-12T02:29:05.052Z,0.00
2022-08-12T02:30:05.009Z,0.00
2022-08-12T02:31:04.984Z,0.00
2022-08-12T02:32:04.926Z,0.00
2022-08-12T02:33:04.906Z,0.00
2022-08-12T02:34:04.846Z,0.00
2022-08-12T02:35:04.800Z,0.00
2022-08-12T02:36:04.762Z,0.00
2022-08-12T02:37:04.711Z,0.00
2022-08-12T02:40:09.846Z,0.00
2022-08-12T02:41:09.787Z,0.00
2022-08-12T02:42:09.758Z,0.00
2022-08-12T02:43:09.706Z,0.00
2022-08-12T02:44:09.670Z,0.00
2022-08-12T02:45:09.627Z,0.00
2022-08-12T02:46:14.126Z,0.00
2022-08-12T02:47:55.890Z,0.00
2022-08-12T02:48:09.498Z,0.00
2022-08-12T02:49:09.468Z,0.00
2022-08-12T02:50:09.416Z,0.00
2022-08-12T02:51:09.374Z,0.00
2022-08-12T02:52:09.333Z,0.00
2022-08-12T02:53:09.283Z,0.00
2022-08-12T02:54:09.242Z,0.00
2022-08-12T02:55:09.202Z,0.00
2022-08-12T02:56:09.365Z,0.00
2022-08-12T02:57:09.120Z,0.00
2022-08-12T02:58:12.449Z,0.00
2022-08-12T02:59:09.032Z,0.00
2022-08-12T03:00:08.996Z,0.00
2022-08-12T03:03:35.784Z,0.00
2022-08-12T03:04:37.970Z,0.00
2022-08-12T03:05:38.630Z,0.00
2022-08-12T03:06:35.441Z,0.00
2022-08-12T03:07:56.253Z,0.00
2022-08-12T03:08:35.361Z,0.00
2022-08-12T03:09:48.351Z,0.00
2022-08-12T03:10:37.685Z,0.00
2022-08-12T03:12:35.308Z,0.00
2022-08-12T03:13:35.145Z,0.00
2022-08-12T03:14:35.115Z,0.00
2022-08-12T03:15:35.059Z,0.00
2022-08-12T03:16:36.897Z,0.00
2022-08-12T03:17:34.979Z,0.00
2022-08-12T03:18:34.938Z,0.00
2022-08-12T03:19:34.901Z,0.00
2022-08-12T03:20:34.860Z,0.00
2022-08-12T03:21:56.469Z,0.00
2022-08-12T03:22:34.801Z,0.00
2022-08-12T03:23:34.726Z,0.00
2022-08-12T03:24:34.686Z,0.00
2022-08-12T03:25:34.643Z,0.00
2022-08-12T03:26:34.617Z,0.00
2022-08-12T03:27:34.587Z,0.00
2022-08-12T03:28:34.517Z,0.00
2022-08-12T03:29:49.891Z,0.00
2022-08-12T03:30:34.449Z,0.00
2022-08-12T03:31:34.392Z,0.00
2022-08-12T03:32:36.256Z,0.00
2022-08-12T03:33:34.303Z,0.00
2022-08-12T03:34:34.266Z,0.00
2022-08-12T03:35:39.887Z,0.00
2022-08-12T03:36:34.181Z,0.00
2022-08-12T03:37:34.132Z,0.00
2022-08-12T03:38:34.102Z,0.00
2022-08-12T03:39:36.057Z,0.00
2022-08-12T03:40:34.028Z,0.00
2022-08-12T03:41:33.975Z,0.00
2022-08-12T03:42:34.473Z,0.00
2022-08-12T03:43:33.906Z,0.00
2022-08-12T03:44:33.841Z,0.00
2022-08-12T03:45:33.801Z,4.00
2022-08-12T03:46:33.759Z,0.00
2022-08-12T03:47:33.712Z,0.00
2022-08-12T03:48:33.700Z,4.00
2022-08-12T03:49:33.647Z,4.00
2022-08-12T03:50:33.595Z,4.00
2022-08-12T03:51:33.544Z,4.00
2022-08-12T03:52:33.504Z,4.00
2022-08-12T03:53:33.459Z,8.00
2022-08-12T03:54:33.452Z,4.00
2022-08-12T03:55:33.380Z,4.00
2022-08-12T03:56:33.360Z,8.00
2022-08-12T03:57:33.326Z,12.00
2022-08-12T03:58:33.254Z,12.00
2022-08-12T03:59:33.206Z,12.00
2022-08-12T04:00:33.250Z,16.00
2022-08-12T04:01:33.150Z,20.00
2022-08-12T04:02:33.084Z,20.00
2022-08-12T04:03:33.059Z,24.00
2022-08-12T04:04:32.999Z,28.00
2022-08-12T04:05:55.652Z,28.00
2022-08-12T04:06:35.351Z,32.00
2022-08-12T04:07:32.892Z,36.00
2022-08-12T04:08:32.833Z,40.00
2022-08-12T04:09:33.114Z,44.00
2022-08-12T04:10:32.750Z,48.00
2022-08-12T04:11:32.705Z,52.00
2022-08-12T04:12:33.244Z,60.00
2022-08-12T04:13:32.617Z,64.00
2022-08-12T04:14:32.604Z,72.00
2022-08-12T04:15:32.536Z,80.00
2022-08-12T04:16:32.494Z,84.00
2022-08-12T04:17:32.472Z,92.00
2022-08-12T04:18:32.412Z,96.00
2022-08-12T04:19:32.375Z,104.00
2022-08-12T04:20:32.328Z,112.00
2022-08-12T04:21:32.300Z,120.00
2022-08-12T04:22:32.268Z,124.00
2022-08-12T04:23:32.197Z,132.00
2022-08-12T04:24:32.167Z,144.00
2022-08-12T04:25:32.137Z,152.00
2022-08-12T04:26:32.074Z,160.00
2022-08-12T04:27:32.726Z,168.00
2022-08-12T04:28:31.992Z,180.00
2022-08-12T04:30:30.946Z,184.00
2022-08-12T04:30:33.709Z,192.00
2022-08-12T04:31:31.869Z,204.00
2022-08-12T04:32:31.950Z,212.00
2022-08-12T04:33:31.778Z,224.00
2022-08-12T04:34:31.736Z,236.00
2022-08-12T04:35:31.697Z,240.00
2022-08-12T04:36:31.656Z,252.00
2022-08-12T04:37:59.908Z,260.00
2022-08-12T04:38:31.570Z,272.00
2022-08-12T04:39:31.606Z,280.00
2022-08-12T04:40:31.634Z,288.00
2022-08-12T04:41:31.463Z,300.00
2022-08-12T04:42:31.464Z,308.00
2022-08-12T04:44:00.596Z,316.00
2022-08-12T04:44:31.329Z,328.00
2022-08-12T04:45:31.278Z,336.00
2022-08-12T04:46:34.500Z,344.00
2022-08-12T04:47:31.201Z,356.00
2022-08-12T04:48:31.167Z,364.00
2022-08-12T04:49:31.113Z,372.00
2022-08-12T05:16:30.762Z,596.00
2022-08-12T05:17:22.350Z,600.00
2022-08-12T05:18:22.302Z,604.00
2022-08-12T05:19:22.659Z,612.00
2022-08-12T05:20:22.219Z,620.00
2022-08-12T05:21:22.176Z,624.00
2022-08-12T05:22:22.131Z,632.00
2022-08-12T05:23:22.088Z,640.00
2022-08-12T05:24:22.070Z,644.00
2022-08-12T05:25:22.358Z,652.00
2022-08-12T05:26:21.963Z,656.00
2022-08-12T05:27:21.918Z,664.00
2022-08-12T05:38:25.891Z,724.00
2022-08-12T05:39:25.945Z,728.00
2022-08-12T05:48:24.956Z,776.00
2022-08-12T05:49:24.910Z,780.00
2022-08-12T05:50:24.870Z,788.00
2022-08-12T05:51:24.827Z,792.00
2022-08-12T05:52:24.784Z,796.00
2022-08-12T05:53:24.738Z,800.00
2022-08-12T05:54:41.165Z,808.00
2022-08-12T05:55:29.372Z,812.00
2022-08-12T05:56:24.615Z,816.00
2022-08-12T05:57:24.569Z,820.00
2022-08-12T05:58:24.539Z,828.00
2022-08-12T05:59:24.485Z,828.00
2022-08-12T06:00:24.447Z,832.00
2022-08-12T06:02:09.790Z,836.00
2022-08-12T06:02:24.364Z,840.00
2022-08-12T06:03:24.345Z,844.00
2022-08-12T06:04:24.278Z,848.00
2022-08-12T06:05:24.236Z,852.00
2022-08-12T07:00:32.417Z,1244.00
2022-08-12T07:01:27.419Z,1256.00
2022-08-12T07:02:27.491Z,1268.00
2022-08-12T07:03:27.246Z,1276.00
2022-08-12T07:19:48.646Z,1424.00
2022-08-12T07:20:52.634Z,1440.00
2022-08-12T07:22:00.177Z,1456.00
2022-08-12T07:22:47.394Z,1460.00
2022-08-12T07:23:47.354Z,1464.00
2022-08-12T07:24:47.316Z,1472.00
2022-08-12T07:25:47.316Z,1480.00
2022-08-12T07:26:47.230Z,1488.00
2022-08-12T07:27:47.192Z,1500.00
2022-08-12T07:28:47.147Z,1516.00
2022-08-12T07:30:03.809Z,1528.00
2022-08-12T07:30:47.067Z,1540.00
2022-08-12T07:31:47.032Z,1544.00
2022-08-12T07:32:46.980Z,1556.00
2022-08-12T07:33:46.940Z,1564.00
2022-08-12T07:34:46.900Z,1572.00
2022-08-12T07:35:49.478Z,1584.00
2022-08-12T07:36:46.837Z,1600.00
2022-08-12T07:37:46.775Z,1608.00
2022-08-12T07:38:46.730Z,1624.00
2022-08-12T07:39:55.307Z,1636.00
2022-08-12T07:40:46.649Z,1648.00
2022-08-12T07:41:46.611Z,1664.00
2022-08-12T07:42:49.797Z,1672.00
2022-08-12T07:43:46.529Z,1688.00
2022-08-12T07:44:46.487Z,1708.00
2022-08-12T07:45:46.446Z,1720.00
2022-08-12T07:46:46.410Z,1732.00
2022-08-12T07:47:46.363Z,1756.00
2022-08-12T07:48:47.737Z,1736.00
2022-08-12T07:50:05.176Z,1776.00
2022-08-12T07:50:46.240Z,1788.00
2022-08-12T07:52:59.621Z,1812.00
2022-08-12T07:54:00.465Z,1820.00
2022-08-12T07:54:59.543Z,1832.00
2022-08-12T07:55:59.495Z,1840.00
2022-08-12T07:56:59.459Z,1848.00
2022-08-12T07:57:59.533Z,1860.00
2022-08-12T07:58:59.614Z,1868.00
2022-08-12T07:59:59.334Z,1868.00
2022-08-12T08:00:59.292Z,1872.00
2022-08-12T08:03:26.021Z,1908.00
2022-08-12T08:04:25.977Z,1904.00
2022-08-12T08:05:25.941Z,1900.00
2022-08-12T08:07:09.293Z,1916.00
2022-08-12T08:08:09.240Z,1928.00
2022-08-12T08:09:09.202Z,1948.00
2022-08-12T08:11:27.604Z,1960.00
2022-08-12T08:12:27.546Z,1964.00
2022-08-12T08:44:44.462Z,2148.00
2022-08-12T08:45:44.413Z,2148.00
2022-08-12T08:46:44.391Z,2152.00
2022-08-12T08:47:44.333Z,2156.00
2022-08-12T08:48:44.295Z,2160.00
2022-08-12T08:49:44.249Z,2180.00
2022-08-12T08:50:44.211Z,2184.00
2022-08-12T08:51:44.170Z,2180.00
2022-08-12T08:52:44.176Z,2184.00
2022-08-12T08:53:44.089Z,2180.00
2022-08-12T08:54:44.049Z,2184.00
2022-08-12T08:56:04.216Z,2188.00
2022-08-12T08:56:44.014Z,2192.00
2022-08-12T08:57:44.748Z,2200.00
2022-08-12T08:58:43.889Z,2208.00
2022-08-12T08:59:43.847Z,2204.00
2022-08-12T09:00:43.813Z,2208.00
2022-08-12T09:01:44.420Z,2220.00
2022-08-12T09:02:49.446Z,2224.00
2022-08-12T09:05:07.873Z,2244.00
2022-08-12T09:05:12.429Z,2232.00
2022-08-12T09:06:02.480Z,2228.00
2022-08-12T09:06:53.882Z,2240.00
2022-08-12T09:07:51.991Z,2248.00
2022-08-12T09:08:43.492Z,2240.00
2022-08-12T09:10:01.560Z,2248.00
2022-08-12T09:12:11.558Z,2252.00
2022-08-12T09:12:43.332Z,2256.00
2022-08-12T09:14:43.253Z,2256.00
2022-08-12T09:15:43.210Z,2240.00
2022-08-12T09:16:43.186Z,2276.00
2022-08-12T09:17:43.500Z,2276.00
2022-08-12T09:18:43.089Z,2272.00
2022-08-12T09:19:43.047Z,2280.00
2022-08-12T09:20:43.012Z,2280.00
2022-08-12T09:21:54.927Z,2268.00
2022-08-12T09:22:42.947Z,2268.00
2022-08-12T09:23:59.576Z,2284.00
2022-08-12T09:24:42.851Z,2280.00
2022-08-12T09:25:42.869Z,2284.00
2022-08-12T09:26:46.289Z,2288.00
2022-08-12T09:28:03.476Z,2288.00
2022-08-12T09:28:42.694Z,2292.00
2022-08-12T09:30:10.554Z,2316.00
2022-08-12T09:30:42.899Z,2312.00
2022-08-12T09:32:07.378Z,2316.00
2022-08-12T09:33:04.179Z,2312.00
2022-08-12T09:34:28.937Z,2320.00
2022-08-12T09:34:43.909Z,2304.00
2022-08-12T09:35:43.085Z,2312.00
2022-08-12T09:37:01.101Z,2344.00
2022-08-12T09:37:57.658Z,2320.00
2022-08-12T09:38:58.814Z,2328.00
2022-08-12T09:40:06.015Z,2336.00
2022-08-12T09:41:03.813Z,2356.00
2022-08-12T09:42:32.811Z,2376.00
2022-08-12T09:42:49.201Z,2376.00
2022-08-12T09:43:53.396Z,2348.00
2022-08-12T09:44:42.227Z,2360.00
2022-08-12T09:46:14.329Z,2364.00
2022-08-12T09:46:42.043Z,2364.00
2022-08-12T09:47:41.958Z,2360.00
2022-08-12T09:48:44.791Z,2380.00
2022-08-12T09:49:42.735Z,2364.00
2022-08-12T09:50:41.823Z,2384.00
2022-08-12T09:51:43.620Z,2404.00
2022-08-12T09:52:41.744Z,2400.00
2022-08-12T09:53:41.707Z,2408.00
2022-08-12T09:54:42.658Z,2408.00
2022-08-12T09:56:06.472Z,2420.00
2022-08-12T09:57:02.616Z,2424.00
2022-08-12T09:58:46.933Z,2412.00
2022-08-12T09:58:57.574Z,2420.00
2022-08-12T10:00:17.195Z,2424.00
2022-08-12T10:00:51.683Z,2436.00
2022-08-12T10:02:41.813Z,2424.00
2022-08-12T10:02:44.899Z,2424.00
2022-08-12T10:03:55.509Z,2432.00
2022-08-12T10:04:51.378Z,2436.00
2022-08-12T10:06:26.882Z,2440.00
2022-08-12T10:06:54.337Z,2488.00
2022-08-12T10:07:41.162Z,2452.00
2022-08-12T10:08:41.120Z,2524.00
2022-08-12T10:09:58.679Z,2472.00
2022-08-12T10:10:42.625Z,2488.00
2022-08-12T10:12:09.688Z,2480.00
2022-08-12T10:12:40.963Z,2504.00
2022-08-12T10:13:41.161Z,2504.00
2022-08-12T10:14:52.301Z,2520.00
2022-08-12T10:16:02.574Z,2492.00
2022-08-12T10:16:40.807Z,2504.00
2022-08-12T10:18:06.090Z,2516.00
2022-08-12T10:18:51.674Z,2508.00
2022-08-12T10:19:40.690Z,2544.00
2022-08-12T10:20:40.655Z,2568.00
2022-08-12T10:21:40.614Z,2556.00
2022-08-12T10:22:41.345Z,2572.00
2022-08-12T10:23:45.862Z,2572.00
2022-08-12T10:24:40.522Z,2576.00
2022-08-12T10:26:34.057Z,2596.00
2022-08-12T10:26:40.429Z,2600.00
2022-08-12T10:28:03.883Z,2624.00
2022-08-12T10:28:40.345Z,2612.00
2022-08-12T10:30:40.711Z,2608.00
2022-08-12T10:30:46.797Z,2656.00
2022-08-12T10:31:46.981Z,2644.00
2022-08-12T10:32:44.851Z,2648.00
2022-08-12T10:33:55.020Z,2644.00
2022-08-12T10:34:40.134Z,2712.00
2022-08-12T10:35:40.074Z,2688.00
2022-08-12T10:36:43.199Z,1744.00
2022-08-12T10:38:33.600Z,1676.00
2022-08-12T10:38:41.377Z,1684.00
2022-08-12T10:40:02.094Z,1688.00
2022-08-12T10:40:39.977Z,1704.00
2022-08-12T10:41:57.701Z,1708.00
2022-08-12T10:42:39.855Z,1716.00
2022-08-12T10:43:54.848Z,1716.00
2022-08-12T10:44:39.738Z,1728.00
2022-08-12T10:45:39.706Z,1744.00
2022-08-12T10:46:39.646Z,1732.00
2022-08-12T10:48:15.997Z,1744.00
2022-08-12T10:48:39.570Z,1756.00
2022-08-12T10:50:02.315Z,1768.00
2022-08-12T10:51:02.356Z,1788.00
2022-08-12T10:52:04.193Z,1788.00
2022-08-12T10:52:39.417Z,1796.00
2022-08-12T10:53:45.019Z,1816.00
2022-08-12T10:54:39.372Z,1824.00
2022-08-12T10:55:39.318Z,1836.00
2022-08-12T10:56:39.267Z,1824.00
2022-08-12T10:58:14.289Z,1844.00
2022-08-12T10:58:39.189Z,1848.00
2022-08-12T11:00:30.676Z,1884.00
2022-08-12T11:00:55.333Z,1884.00
2022-08-12T11:04:16.919Z,1900.00
2022-08-12T11:04:22.843Z,1912.00
2022-08-12T11:04:23.175Z,1920.00
2022-08-12T11:04:45.141Z,1924.00
2022-08-12T11:07:07.088Z,1936.00
2022-08-12T11:07:08.366Z,1960.00
2022-08-12T11:08:36.997Z,1976.00
2022-08-12T11:08:42.763Z,1984.00
2022-08-12T11:09:51.377Z,1992.00
2022-08-12T11:10:38.832Z,2020.00
2022-08-12T11:12:34.900Z,2024.00
2022-08-12T11:12:58.988Z,2028.00
2022-08-12T11:13:46.012Z,2064.00
2022-08-12T11:14:49.799Z,2064.00
2022-08-12T11:16:03.342Z,2080.00
2022-08-12T11:16:38.850Z,2092.00
2022-08-12T11:17:52.027Z,2088.00
2022-08-12T11:18:38.772Z,2104.00
2022-08-12T11:19:38.404Z,2132.00
2022-08-12T11:20:38.372Z,2120.00
2022-08-12T11:21:58.146Z,2164.00
2022-08-12T11:22:38.293Z,2164.00
2022-08-12T11:23:38.257Z,2172.00
2022-08-12T11:24:38.239Z,2208.00
2022-08-12T11:25:56.070Z,2216.00
2022-08-12T11:26:38.172Z,2248.00
2022-08-12T11:27:38.110Z,2260.00
2022-08-12T11:28:38.766Z,2264.00
2022-08-12T11:30:00.556Z,2268.00
2022-08-12T11:30:37.997Z,2284.00
2022-08-12T11:31:40.935Z,2300.00
2022-08-12T11:32:39.183Z,2320.00
2022-08-12T11:34:05.526Z,2308.00
2022-08-12T11:34:52.979Z,2312.00
2022-08-12T11:35:37.816Z,2320.00
2022-08-12T11:36:39.370Z,2324.00
2022-08-12T11:37:57.726Z,2344.00
2022-08-12T11:38:37.689Z,2356.00
2022-08-12T11:40:03.174Z,2364.00
2022-08-12T11:40:42.738Z,2368.00
2022-08-12T11:41:38.383Z,2400.00
2022-08-12T11:42:46.161Z,2440.00
2022-08-12T11:44:43.005Z,2424.00
2022-08-12T11:45:39.032Z,2440.00
2022-08-12T11:46:35.842Z,2452.00
2022-08-12T11:47:35.806Z,2464.00
2022-08-12T11:48:52.327Z,2460.00
2022-08-12T11:49:35.734Z,2460.00
2022-08-12T11:50:35.700Z,2432.00
2022-08-12T11:51:36.575Z,2440.00
2022-08-12T11:52:55.104Z,2480.00
2022-08-12T11:53:58.598Z,2508.00
2022-08-12T11:54:35.568Z,2540.00
2022-08-12T11:55:35.530Z,2560.00
2022-08-12T11:56:38.834Z,2568.00
2022-08-12T11:59:14.614Z,2584.00
2022-08-12T12:00:23.993Z,2604.00
2022-08-12T12:01:58.971Z,2664.00
2022-08-12T12:02:35.339Z,2692.00
2022-08-12T12:03:43.927Z,2700.00
2022-08-12T12:04:35.597Z,2728.00
2022-08-12T12:06:24.631Z,2748.00
2022-08-12T12:09:11.219Z,2760.00
2022-08-12T12:10:11.156Z,2748.00
2022-08-12T12:11:11.084Z,2772.00
2022-08-12T12:12:11.050Z,2768.00
2022-08-12T12:13:11.875Z,2804.00
2022-08-12T12:14:11.242Z,2856.00
2022-08-12T12:16:50.212Z,2928.00
2022-08-12T12:17:49.635Z,2972.00
2022-08-12T12:18:49.508Z,3036.00
2022-08-12T12:19:49.523Z,2980.00
2022-08-12T12:20:49.274Z,2956.00
2022-08-12T12:21:49.679Z,2916.00
2022-08-12T12:22:49.208Z,2920.00
2022-08-12T12:26:06.569Z,2912.00
2022-08-12T12:27:01.000Z,2888.00
2022-08-12T12:28:04.832Z,2872.00
2022-08-12T12:28:54.408Z,2948.00
2022-08-12T12:30:19.121Z,2956.00
2022-08-12T12:40:50.513Z,2760.00
2022-08-12T12:42:43.950Z,2772.00
2022-08-12T12:42:55.511Z,2692.00
2022-08-12T12:44:04.072Z,2692.00
2022-08-12T12:44:50.823Z,2592.00
2022-08-12T12:45:46.843Z,2548.00
2022-08-12T12:46:46.802Z,2548.00
2022-08-12T12:47:46.767Z,2524.00
2022-08-12T12:48:46.735Z,2536.00
2022-08-12T12:49:46.701Z,2512.00
2022-08-12T12:50:51.453Z,2648.00
2022-08-12T12:52:17.159Z,2396.00
2022-08-12T12:52:46.600Z,2512.00
2022-08-12T12:54:08.200Z,2412.00
2022-08-12T12:54:46.565Z,2256.00
2022-08-12T12:55:46.539Z,2124.00
2022-08-12T12:56:46.465Z,1996.00
2022-08-12T12:57:59.187Z,1864.00
2022-08-12T12:58:46.395Z,1708.00
2022-08-12T12:59:56.159Z,1632.00
2022-08-12T13:00:50.906Z,1568.00
2022-08-12T13:01:46.337Z,1488.00
2022-08-12T13:02:53.549Z,1508.00
2022-08-12T13:03:49.099Z,1532.00
2022-08-12T13:04:46.214Z,1488.00
2022-08-12T13:05:46.160Z,1336.00
2022-08-12T13:06:46.125Z,1284.00
2022-08-12T13:07:49.546Z,1220.00
2022-08-12T13:08:46.871Z,1284.00
2022-08-12T13:09:46.669Z,1096.00
2022-08-12T13:10:50.373Z,1216.00
2022-08-12T13:11:45.957Z,1060.00
2022-08-12T13:12:45.926Z,1056.00
2022-08-12T13:14:10.559Z,1144.00
2022-08-12T13:14:45.854Z,996.00
2022-08-12T13:15:47.922Z,952.00
2022-08-12T13:16:45.788Z,912.00
2022-08-12T13:18:02.147Z,900.00
2022-08-12T13:18:45.719Z,924.00
2022-08-12T13:19:50.043Z,880.00
2022-08-12T13:20:45.651Z,884.00
2022-08-12T13:21:45.618Z,808.00
2022-08-12T13:22:45.583Z,780.00
2022-08-12T13:23:45.547Z,780.00
2022-08-12T13:24:45.512Z,792.00
2022-08-12T13:25:45.481Z,772.00
2022-08-12T13:26:45.445Z,736.00
2022-08-12T13:27:46.299Z,708.00
2022-08-12T13:28:45.375Z,700.00
2022-08-12T13:29:45.340Z,700.00
2022-08-12T13:30:48.351Z,776.00
2022-08-12T13:32:17.420Z,684.00
2022-08-12T13:32:56.892Z,688.00
2022-08-12T13:34:33.654Z,692.00
2022-08-12T13:34:45.166Z,672.00
2022-08-12T13:36:05.740Z,680.00
2022-08-12T13:36:45.097Z,672.00
2022-08-12T13:37:54.677Z,800.00
2022-08-12T13:38:45.026Z,680.00
2022-08-12T13:39:45.029Z,680.00
2022-08-12T13:40:46.238Z,680.00
2022-08-12T13:41:44.922Z,668.00
2022-08-12T13:42:45.095Z,696.00
2022-08-12T13:43:44.854Z,692.00
2022-08-12T13:44:46.274Z,700.00
2022-08-12T13:45:44.779Z,712.00
2022-08-12T13:46:44.744Z,712.00
2022-08-12T13:47:44.712Z,716.00
2022-08-12T13:48:45.737Z,740.00
2022-08-12T13:49:54.117Z,740.00
2022-08-12T13:50:44.597Z,728.00
2022-08-12T13:51:44.562Z,736.00
2022-08-12T13:52:46.340Z,760.00
2022-08-12T13:53:57.591Z,748.00
2022-08-12T13:54:44.457Z,748.00
2022-08-12T13:55:44.417Z,756.00
2022-08-12T13:56:49.785Z,764.00
2022-08-12T13:57:47.065Z,828.00
2022-08-12T13:58:44.309Z,732.00
2022-08-12T13:59:48.278Z,756.00
2022-08-12T14:00:45.969Z,760.00
2022-08-12T14:01:44.198Z,756.00
2022-08-12T14:02:44.166Z,748.00
2022-08-12T14:03:50.498Z,756.00
2022-08-12T14:04:44.090Z,744.00
2022-08-12T14:05:44.050Z,740.00
2022-08-12T14:06:44.848Z,732.00
2022-08-12T14:07:45.934Z,736.00
2022-08-12T14:08:43.945Z,728.00
2022-08-12T14:09:43.904Z,728.00
2022-08-12T14:10:50.961Z,724.00
2022-08-12T14:11:47.922Z,716.00
2022-08-12T14:12:54.089Z,732.00
2022-08-12T14:14:04.867Z,728.00
2022-08-12T14:14:43.724Z,744.00
2022-08-12T14:15:43.684Z,744.00
2022-08-12T14:16:48.642Z,736.00
2022-08-12T14:17:43.611Z,736.00
2022-08-12T14:18:46.402Z,752.00
2022-08-12T14:19:53.380Z,748.00
2022-08-12T14:20:43.806Z,744.00
2022-08-12T14:22:00.594Z,760.00
2022-08-12T14:22:52.510Z,756.00
2022-08-12T14:24:05.856Z,760.00
2022-08-12T14:24:43.352Z,752.00
2022-08-12T14:25:43.313Z,756.00
2022-08-12T14:26:43.278Z,768.00
2022-08-12T14:28:04.770Z,760.00
2022-08-12T14:28:45.428Z,760.00
2022-08-12T14:30:12.879Z,760.00
2022-08-12T14:30:43.128Z,764.00
2022-08-12T14:31:43.221Z,760.00
2022-08-12T14:32:43.329Z,764.00
2022-08-12T14:33:44.057Z,768.00
2022-08-12T14:34:42.984Z,768.00
2022-08-12T14:35:46.066Z,772.00
2022-08-12T14:36:42.900Z,784.00
2022-08-12T14:37:57.114Z,780.00
2022-08-12T14:38:42.824Z,784.00
2022-08-12T14:39:42.853Z,788.00
2022-08-12T14:40:42.753Z,804.00
2022-08-12T14:41:50.342Z,796.00
2022-08-12T14:42:42.675Z,796.00
2022-08-12T14:43:44.347Z,796.00
2022-08-12T14:44:59.934Z,816.00
2022-08-12T14:45:49.349Z,816.00
2022-08-12T14:46:42.525Z,820.00
2022-08-12T14:47:44.066Z,808.00
2022-08-12T14:48:42.461Z,812.00
2022-08-12T14:50:33.639Z,824.00
2022-08-12T14:51:02.649Z,820.00
2022-08-12T14:52:57.717Z,828.00
2022-08-12T14:54:23.874Z,832.00
2022-08-12T14:56:59.221Z,856.00
2022-08-12T14:57:57.195Z,876.00
2022-08-12T14:58:51.629Z,888.00
2022-08-12T14:59:57.820Z,900.00
2022-08-12T15:00:47.237Z,900.00
2022-08-12T15:01:41.959Z,908.00
2022-08-12T15:02:41.922Z,920.00
2022-08-12T15:03:57.063Z,900.00
2022-08-12T15:04:41.846Z,948.00
2022-08-12T15:06:05.804Z,920.00
2022-08-12T15:06:52.195Z,980.00
2022-08-12T15:07:50.361Z,992.00
2022-08-12T15:08:41.701Z,908.00
2022-08-12T15:09:41.657Z,1016.00
2022-08-12T15:10:45.863Z,1016.00
2022-08-12T15:11:54.418Z,1024.00
2022-08-12T15:12:41.585Z,1016.00
2022-08-12T15:13:41.507Z,1040.00
2022-08-12T15:14:41.475Z,1052.00
2022-08-12T15:15:43.991Z,1072.00
2022-08-12T15:16:41.396Z,1096.00
2022-08-12T15:17:41.359Z,1132.00
2022-08-12T15:18:55.282Z,1184.00
2022-08-12T15:20:28.304Z,1252.00
2022-08-12T15:20:41.241Z,1300.00
2022-08-12T15:22:37.832Z,1352.00
2022-08-12T15:22:53.603Z,1440.00
2022-08-12T15:23:55.280Z,1600.00
2022-08-12T15:24:41.092Z,1616.00
2022-08-12T15:25:47.540Z,1612.00
2022-08-12T15:26:41.069Z,2232.00
2022-08-12T15:28:05.463Z,1852.00
2022-08-12T15:28:40.944Z,3040.00
2022-08-12T15:29:40.902Z,5224.00
2022-08-12T15:30:40.875Z,5388.00
2022-08-12T15:32:01.848Z,3672.00
2022-08-12T15:32:40.793Z,2064.00
2022-08-12T15:33:45.183Z,2112.00
2022-08-12T15:34:40.715Z,2876.00
2022-08-12T15:35:52.139Z,2596.00
2022-08-12T15:36:55.097Z,2720.00
2022-08-12T15:37:59.047Z,3448.00
2022-08-12T15:38:40.563Z,6080.00
2022-08-12T15:39:40.576Z,13592.00
2022-08-12T15:40:46.661Z,18368.00
2022-08-12T15:41:49.039Z,9964.00
2022-08-12T15:42:40.601Z,5988.00
2022-08-12T15:44:15.708Z,7188.00
2022-08-12T15:44:43.055Z,5696.00
2022-08-12T15:45:42.612Z,10492.00
2022-08-12T15:46:40.262Z,4416.00
2022-08-12T15:47:49.644Z,16768.00
2022-08-12T15:48:40.193Z,11520.00
2022-08-12T15:49:43.425Z,16320.00
2022-08-12T15:50:40.116Z,15552.00
2022-08-12T15:51:58.185Z,16096.00
2022-08-12T15:52:40.040Z,8368.00
2022-08-12T15:53:40.005Z,14740.00
2022-08-12T15:54:44.607Z,13452.00
2022-08-12T15:55:45.769Z,12832.00
2022-08-12T15:56:39.893Z,12204.00
2022-08-12T15:57:39.855Z,10776.00
2022-08-12T15:58:39.817Z,10580.00
2022-08-12T16:00:00.304Z,10412.00
2022-08-12T16:02:41.576Z,7680.00
2022-08-12T16:03:45.947Z,6692.00
2022-08-12T16:06:11.145Z,7420.00
2022-08-12T16:07:00.497Z,6964.00
2022-08-12T16:07:32.673Z,6684.00
2022-08-12T16:08:29.804Z,6180.00
2022-08-12T16:09:55.822Z,5680.00
2022-08-12T16:10:30.691Z,5288.00
2022-08-12T16:11:29.688Z,4872.00
2022-08-12T16:12:29.651Z,4112.00
2022-08-12T16:13:34.355Z,3580.00
2022-08-12T16:14:29.581Z,4764.00
2022-08-12T16:15:35.407Z,3148.00
2022-08-12T16:16:29.516Z,3568.00
2022-08-12T16:18:18.227Z,3376.00
2022-08-12T16:26:32.217Z,3280.00
2022-08-12T16:27:24.360Z,3228.00
2022-08-12T16:29:24.488Z,3216.00
2022-08-12T16:30:24.251Z,3184.00
2022-08-12T16:31:24.473Z,2972.00
2022-08-12T16:32:31.218Z,3092.00
2022-08-12T16:33:24.158Z,3120.00
2022-08-12T16:34:39.887Z,3184.00
2022-08-12T16:35:24.088Z,3312.00
2022-08-12T16:36:24.052Z,5280.00
2022-08-12T16:37:32.600Z,20096.00
2022-08-12T16:38:27.680Z,39104.00
2022-08-12T16:39:24.024Z,47232.00
2022-08-12T16:40:23.984Z,45600.00
2022-08-12T16:41:23.935Z,28448.00